Time;durP1;ratioP1;P1;durP2;ratioP2;P2;SDS_P1;SDS_P2;PMS_P1;PMS_P2;Temp;Humidity;BMP_temperature;BMP_pressure;BME280_temperature;BME280_humidity;BME280_pressure;Samples;Min_cycle;Max_cycle;Signal;HPM_P1;HPM_P2
2022/12/27 00:00:16;;;;;;;6.53;1.30;;;6.60;79.70;;;;;;5012991;28;20053;-75
2022/12/27 00:02:41;;;;;;;14.10;3.90;;;6.60;79.60;;;;;;5013122;28;20104;-75
2022/12/27 00:05:08;;;;;;;13.68;4.53;;;6.60;79.80;;;;;;5012962;28;20030;-75
2022/12/27 00:07:34;;;;;;;15.77;4.78;;;6.60;79.70;;;;;;5013047;28;20507;-75
2022/12/27 00:09:59;;;;;;;4.90;2.60;;;6.60;79.20;;;;;;5012984;28;20018;-75
2022/12/27 00:12:25;;;;;;;7.15;1.95;;;6.50;79.90;;;;;;5013089;28;20025;-75
2022/12/27 00:14:50;;;;;;;4.82;1.83;;;6.60;79.90;;;;;;5012968;28;20030;-75
2022/12/27 00:17:16;;;;;;;3.22;1.30;;;6.50;80.00;;;;;;5013128;28;20068;-76
2022/12/27 00:19:41;;;;;;;5.78;1.00;;;6.50;80.90;;;;;;5013208;28;20025;-75
2022/12/27 00:22:07;;;;;;;2.97;1.38;;;6.50;79.70;;;;;;5011937;28;20033;-75
2022/12/27 00:24:34;;;;;;;2.03;1.25;;;6.60;79.80;;;;;;5013105;28;20083;-75
2022/12/27 00:27:00;;;;;;;2.45;1.02;;;6.50;79.60;;;;;;5012682;28;20443;-76
2022/12/27 00:29:25;;;;;;;2.25;1.00;;;6.30;79.30;;;;;;5015065;28;20034;-75
2022/12/27 00:31:51;;;;;;;7.97;1.15;;;6.30;78.40;;;;;;5016720;28;20025;-75
2022/12/27 00:34:16;;;;;;;2.45;0.95;;;6.20;77.60;;;;;;5016930;28;20034;-76
2022/12/27 00:36:42;;;;;;;2.90;0.90;;;6.20;76.90;;;;;;5016631;28;20112;-75
2022/12/27 00:39:09;;;;;;;4.75;1.00;;;6.20;76.80;;;;;;5016748;28;20022;-76
2022/12/27 00:41:35;;;;;;;7.00;2.13;;;6.00;76.70;;;;;;5016426;28;20041;-76
2022/12/27 00:44:00;;;;;;;2.97;1.05;;;6.00;77.00;;;;;;5016685;28;20029;-75
2022/12/27 00:46:26;;;;;;;2.58;0.90;;;5.90;77.30;;;;;;5016504;28;20026;-75
2022/12/27 00:48:52;;;;;;;8.75;1.52;;;5.90;76.90;;;;;;5016646;28;20061;-75
2022/12/27 00:51:22;;;;;;;3.95;1.10;;;5.90;76.90;;;;;;5016566;28;20022;-75
2022/12/27 00:53:49;;;;;;;4.43;1.27;;;5.90;75.80;;;;;;5016342;28;20026;-76
2022/12/27 00:56:18;;;;;;;3.60;1.10;;;5.90;75.80;;;;;;5016402;28;20014;-75
2022/12/27 00:58:44;;;;;;;5.63;1.23;;;5.80;76.70;;;;;;5016305;28;20490;-75
2022/12/27 01:01:19;;;;;;;3.70;1.13;;;5.70;76.10;;;;;;5016369;28;20032;-75
2022/12/27 01:03:45;;;;;;;4.43;0.88;;;5.70;76.40;;;;;;5016032;28;20040;-75
2022/12/27 01:06:14;;;;;;;4.25;1.00;;;5.70;76.50;;;;;;5016244;28;20026;-75
2022/12/27 01:08:41;;;;;;;5.68;1.15;;;5.60;76.20;;;;;;5015975;28;20054;-75
2022/12/27 01:11:07;;;;;;;5.05;1.13;;;5.70;76.60;;;;;;5015037;28;20022;-75
2022/12/27 01:13:34;;;;;;;6.53;1.48;;;5.60;76.70;;;;;;5016221;28;20034;-75
2022/12/27 01:15:59;;;;;;;4.97;1.67;;;5.50;76.60;;;;;;5016133;28;20080;-75
2022/12/27 01:18:25;;;;;;;4.70;1.20;;;5.50;76.60;;;;;;5015955;28;20064;-75
2022/12/27 01:20:50;;;;;;;3.65;0.90;;;5.50;76.60;;;;;;5016264;28;20034;-74
2022/12/27 01:23:16;;;;;;;6.78;1.35;;;5.50;76.30;;;;;;5015011;28;20100;-75
2022/12/27 01:25:42;;;;;;;7.68;1.17;;;5.50;76.00;;;;;;5016087;28;20390;-75
2022/12/27 01:28:08;;;;;;;4.05;1.50;;;5.50;75.90;;;;;;5015998;28;20034;-75
2022/12/27 01:30:33;;;;;;;4.45;1.02;;;5.40;75.90;;;;;;5015478;28;20037;-75
2022/12/27 01:32:59;;;;;;;4.72;1.23;;;5.40;75.90;;;;;;5015818;28;20026;-75
2022/12/27 01:35:25;;;;;;;3.45;1.13;;;5.30;76.10;;;;;;5015422;28;20032;-74
2022/12/27 01:37:51;;;;;;;7.47;1.38;;;5.30;76.20;;;;;;5015621;28;20026;-75
2022/12/27 01:40:17;;;;;;;4.05;0.98;;;5.30;76.40;;;;;;5013474;28;20076;-75
2022/12/27 01:42:51;;;;;;;2.70;1.13;;;5.30;76.40;;;;;;5015657;28;20018;-81
2022/12/27 01:45:22;;;;;;;3.15;1.05;;;5.20;76.30;;;;;;5015231;28;20018;-81
2022/12/27 01:47:59;;;;;;;7.13;1.30;;;5.20;76.60;;;;;;5015253;28;20375;-81
2022/12/27 01:50:33;;;;;;;4.15;1.65;;;5.30;76.60;;;;;;5015402;28;20026;-81
2022/12/27 01:53:10;;;;;;;4.95;1.33;;;5.20;76.50;;;;;;5015374;28;20026;-80
2022/12/27 01:55:45;;;;;;;5.60;1.70;;;5.10;77.20;;;;;;5015538;28;20050;-82
2022/12/27 01:58:25;;;;;;;4.90;1.35;;;4.90;77.60;;;;;;5015619;28;20026;-77
2022/12/27 02:00:51;;;;;;;14.88;1.65;;;4.80;78.10;;;;;;5015189;28;20418;-75
2022/12/27 02:03:32;;;;;;;3.75;1.13;;;4.80;78.30;;;;;;5014726;28;20083;-75
2022/12/27 02:06:00;;;;;;;5.45;1.52;;;4.70;78.70;;;;;;5014958;28;20021;-75
2022/12/27 02:08:38;;;;;;;4.85;1.17;;;4.60;79.00;;;;;;5014788;28;20092;-76
2022/12/27 02:11:07;;;;;;;2.65;1.30;;;4.60;79.10;;;;;;5014775;28;20030;-75
2022/12/27 02:13:41;;;;;;;4.97;1.60;;;4.50;79.30;;;;;;5014905;28;20022;-75
2022/12/27 02:16:16;;;;;;;5.57;1.63;;;4.60;79.30;;;;;;5014764;28;20080;-75
2022/12/27 02:18:42;;;;;;;5.68;1.58;;;4.60;79.10;;;;;;5014907;28;20387;-75
2022/12/27 02:21:28;;;;;;;6.95;1.70;;;4.60;79.10;;;;;;5014631;28;20552;-75
2022/12/27 02:24:35;;;;;;;2.75;1.58;;;4.50;79.50;;;;;;5015022;28;20022;-75
2022/12/27 02:27:03;;;;;;;4.18;1.40;;;4.30;80.20;;;;;;4994683;28;20030;-75
2022/12/27 02:29:42;;;;;;;7.97;1.77;;;4.40;80.00;;;;;;5014452;28;20034;-74
2022/12/27 02:32:18;;;;;;;4.70;1.50;;;4.40;79.70;;;;;;5014797;28;20022;-75
2022/12/27 02:34:47;;;;;;;6.07;1.13;;;4.40;79.90;;;;;;5014513;28;20068;-74
2022/12/27 02:37:13;;;;;;;4.97;1.27;;;4.40;79.60;;;;;;5014534;28;20417;-74
2022/12/27 02:39:44;;;;;;;4.10;1.42;;;4.40;79.70;;;;;;5014424;28;20105;-76
2022/12/27 02:53:39;;;;;;;4.20;1.27;;;4.30;79.90;;;;;;5014366;28;20084;-81
2022/12/27 03:06:40;;;;;;;5.13;2.00;;;4.30;80.10;;;;;;5014202;28;20540;-80
2022/12/27 03:15:53;;;;;;;2.47;1.40;;;4.30;80.20;;;;;;4982992;28;20129;-79
2022/12/27 03:17:58;;;;;;;3.53;1.70;;;4.40;79.80;;;;;;5014280;28;20151;-80
2022/12/27 03:25:56;;;;;;;4.43;1.40;;;4.30;79.50;;;;;;5014204;28;20053;-80
2022/12/27 03:34:41;;;;;;;8.68;1.90;;;4.00;79.50;;;;;;5013806;28;20109;-80
2022/12/27 03:40:26;;;;;;;4.47;1.58;;;3.70;80.60;;;;;;5013696;28;20087;-79
2022/12/27 03:43:12;;;;;;;5.43;1.80;;;3.60;81.00;;;;;;5013738;28;20079;-80
2022/12/27 03:48:37;;;;;;;4.45;1.35;;;3.70;81.30;;;;;;5013659;28;20053;-82
2022/12/27 03:51:04;;;;;;;5.80;1.92;;;3.70;81.20;;;;;;5013366;28;20485;-82
2022/12/27 03:53:38;;;;;;;2.30;1.27;;;3.70;81.10;;;;;;5012344;28;20368;-79
2022/12/27 03:56:06;;;;;;;2.83;1.30;;;3.70;81.10;;;;;;5013345;28;20061;-79
2022/12/27 03:58:31;;;;;;;4.30;1.35;;;3.70;81.10;;;;;;5013734;28;20501;-79
2022/12/27 04:00:57;;;;;;;4.03;1.17;;;3.70;81.10;;;;;;5013388;28;20034;-81
2022/12/27 04:03:23;;;;;;;3.05;1.27;;;3.70;81.10;;;;;;5015627;28;20022;-80
2022/12/27 04:05:48;;;;;;;3.75;1.20;;;3.70;81.10;;;;;;5017502;28;20026;-79
2022/12/27 04:35:36;;;;;;;5.80;1.98;;;3.30;80.70;;;;;;5016716;28;20105;-80
2022/12/27 04:38:02;;;;;;;3.38;1.48;;;3.20;80.70;;;;;;5016793;28;20451;-79
2022/12/27 04:57:06;;;;;;;1.52;1.15;;;2.90;80.60;;;;;;5016477;28;20486;-80
2022/12/27 05:02:17;;;;;;;4.88;1.80;;;3.00;80.50;;;;;;5016433;28;20037;-77
2022/12/27 05:04:44;;;;;;;2.58;1.20;;;3.00;80.20;;;;;;5016264;28;20494;-81
2022/12/27 05:15:27;;;;;;;7.07;1.50;;;2.80;79.50;;;;;;5014829;28;20526;-79
2022/12/27 05:17:52;;;;;;;3.50;1.58;;;2.80;80.10;;;;;;5015934;28;20069;-80
2022/12/27 05:20:18;;;;;;;2.67;1.00;;;2.70;80.90;;;;;;5015816;28;20109;-80
2022/12/27 05:25:45;;;;;;;3.55;1.17;;;2.60;81.00;;;;;;4974478;28;20460;-81
2022/12/27 05:28:11;;;;;;;3.60;1.67;;;2.60;81.40;;;;;;5007016;28;20073;-80
2022/12/27 05:30:39;;;;;;;3.53;1.35;;;2.70;81.50;;;;;;5014427;28;20433;-81
2022/12/27 05:33:05;;;;;;;5.72;1.17;;;2.60;81.20;;;;;;5015845;28;20069;-81
2022/12/27 05:35:33;;;;;;;5.05;1.45;;;2.70;81.10;;;;;;5015735;28;20045;-81
2022/12/27 05:37:59;;;;;;;2.15;1.10;;;2.80;80.50;;;;;;5015612;28;20036;-80
2022/12/27 05:40:25;;;;;;;3.55;1.10;;;2.70;80.30;;;;;;5015316;28;20041;-81
2022/12/27 05:42:51;;;;;;;2.90;0.85;;;2.80;80.20;;;;;;5015907;28;20034;-79
2022/12/27 05:45:17;;;;;;;4.22;1.10;;;2.80;79.80;;;;;;5019681;28;20539;-75
2022/12/27 05:47:43;;;;;;;3.35;1.38;;;2.70;79.70;;;;;;5026678;28;20030;-79
2022/12/27 05:50:09;;;;;;;2.22;0.80;;;2.70;80.30;;;;;;5016020;28;20083;-79
2022/12/27 05:52:35;;;;;;;3.50;1.60;;;2.70;80.30;;;;;;5022175;28;20107;-80
2022/12/27 05:55:00;;;;;;;2.35;1.17;;;2.70;80.40;;;;;;5015471;28;20061;-81
2022/12/27 05:57:26;;;;;;;3.67;0.82;;;2.60;80.20;;;;;;5015343;28;20018;-78
2022/12/27 05:59:51;;;;;;;6.40;2.10;;;2.60;80.40;;;;;;5015711;28;20041;-80
2022/12/27 06:02:17;;;;;;;3.75;1.38;;;2.70;80.50;;;;;;5015054;28;20057;-80
2022/12/27 06:04:42;;;;;;;1.95;0.88;;;2.60;80.20;;;;;;5015287;28;20375;-79
2022/12/27 06:07:12;;;;;;;3.33;1.17;;;2.60;80.30;;;;;;5015241;28;20504;-80
2022/12/27 06:09:38;;;;;;;5.22;1.10;;;2.60;80.30;;;;;;5015306;28;20022;-80
2022/12/27 06:12:04;;;;;;;3.65;1.65;;;2.60;80.20;;;;;;5015188;28;20041;-80
2022/12/27 06:14:29;;;;;;;3.42;1.70;;;2.70;80.20;;;;;;5015088;28;20041;-79
2022/12/27 06:16:55;;;;;;;2.72;1.38;;;2.70;79.90;;;;;;5013996;28;20026;-78
2022/12/27 06:19:21;;;;;;;3.35;1.70;;;2.70;79.80;;;;;;5013594;28;20080;-81
2022/12/27 06:21:47;;;;;;;4.05;2.53;;;2.70;79.90;;;;;;5015233;28;20026;-81
2022/12/27 06:24:13;;;;;;;4.28;1.33;;;2.70;80.00;;;;;;5014984;28;20443;-81
2022/12/27 06:26:38;;;;;;;4.15;1.20;;;2.70;79.80;;;;;;5014817;28;20060;-81
2022/12/27 06:29:04;;;;;;;3.90;1.30;;;2.70;80.20;;;;;;5013499;28;20049;-81
2022/12/27 06:31:30;;;;;;;4.40;1.20;;;2.60;80.60;;;;;;5014736;28;20059;-81
2022/12/27 06:33:56;;;;;;;2.80;1.15;;;2.60;80.90;;;;;;5014829;28;20060;-80
2022/12/27 06:36:26;;;;;;;3.60;1.33;;;2.60;81.10;;;;;;5014695;28;20026;-81
2022/12/27 06:38:52;;;;;;;6.15;2.00;;;2.60;81.30;;;;;;5014371;28;20040;-82
2022/12/27 06:41:17;;;;;;;3.55;1.52;;;2.60;81.20;;;;;;5014728;28;20046;-82
2022/12/27 06:43:44;;;;;;;4.95;1.52;;;2.60;81.20;;;;;;5014603;28;20029;-81
2022/12/27 06:46:12;;;;;;;2.38;1.30;;;2.50;80.80;;;;;;5014415;28;20022;-81
2022/12/27 06:48:37;;;;;;;5.25;1.73;;;2.60;81.00;;;;;;5014500;28;20041;-81
2022/12/27 06:51:05;;;;;;;3.83;1.85;;;2.50;80.90;;;;;;5014548;28;20029;-82
2022/12/27 06:53:30;;;;;;;7.10;2.75;;;2.50;80.90;;;;;;5013946;28;20061;-82
2022/12/27 06:55:56;;;;;;;4.10;1.40;;;2.60;80.90;;;;;;5013795;28;20056;-75
2022/12/27 06:58:21;;;;;;;6.18;2.08;;;2.50;80.70;;;;;;5012427;28;20037;-79
2022/12/27 07:00:47;;;;;;;7.65;2.50;;;2.60;80.60;;;;;;5013968;28;20022;-75
2022/12/27 07:03:12;;;;;;;6.53;2.22;;;2.50;80.80;;;;;;5013932;28;20030;-75
2022/12/27 07:05:39;;;;;;;9.93;3.00;;;2.60;80.80;;;;;;5013740;28;20026;-77
2022/12/27 07:08:05;;;;;;;5.65;2.35;;;2.60;80.60;;;;;;5013903;28;20402;-77
2022/12/27 07:10:30;;;;;;;4.65;2.28;;;2.60;80.80;;;;;;5013830;28;20470;-79
2022/12/27 07:12:57;;;;;;;3.85;2.05;;;2.60;80.90;;;;;;5013431;28;20032;-79
2022/12/27 07:15:23;;;;;;;4.32;2.17;;;2.60;80.80;;;;;;5012324;28;20109;-76
2022/12/27 07:17:48;;;;;;;5.03;2.97;;;2.70;80.80;;;;;;5016656;28;20505;-76
2022/12/27 07:20:14;;;;;;;5.13;2.60;;;2.70;80.70;;;;;;5020408;28;20042;-79
2022/12/27 07:22:40;;;;;;;6.45;2.42;;;2.70;81.00;;;;;;5013439;28;20032;-79
2022/12/27 07:25:06;;;;;;;5.22;2.03;;;2.70;81.10;;;;;;5013653;28;20021;-79
2022/12/27 07:27:35;;;;;;;3.65;1.92;;;2.80;80.90;;;;;;5012211;28;20356;-80
2022/12/27 07:30:02;;;;;;;3.13;1.23;;;2.80;81.50;;;;;;5013358;28;20038;-79
2022/12/27 07:32:27;;;;;;;4.25;1.90;;;2.70;80.90;;;;;;5013057;28;20029;-77
2022/12/27 07:34:53;;;;;;;4.68;1.98;;;2.80;80.90;;;;;;5013552;28;20029;-77
2022/12/27 07:37:19;;;;;;;4.22;2.10;;;2.80;80.80;;;;;;5013000;28;20152;-80
2022/12/27 07:39:45;;;;;;;3.88;1.95;;;2.90;80.90;;;;;;5013218;28;20038;-78
2022/12/27 07:42:10;;;;;;;5.32;2.30;;;2.90;80.70;;;;;;5014522;28;20514;-79
2022/12/27 07:44:36;;;;;;;4.72;2.13;;;2.90;80.30;;;;;;5013526;28;20034;-78
2022/12/27 07:47:02;;;;;;;6.15;2.22;;;2.90;80.20;;;;;;5013212;28;20406;-79
2022/12/27 07:49:27;;;;;;;6.25;2.30;;;2.90;80.30;;;;;;5013066;28;20053;-79
2022/12/27 07:51:53;;;;;;;6.18;3.05;;;3.00;80.00;;;;;;5013234;28;20025;-79
2022/12/27 07:54:19;;;;;;;13.55;3.58;;;3.00;80.00;;;;;;5013167;28;20033;-75
2022/12/27 07:56:44;;;;;;;7.63;3.13;;;3.00;79.60;;;;;;5014300;28;20026;-80
2022/12/27 07:59:11;;;;;;;4.82;2.22;;;3.00;79.90;;;;;;5018046;28;20038;-85
2022/12/27 08:02:02;;;;;;;4.50;2.42;;;3.00;79.80;;;;;;5013522;28;20041;-79
2022/12/27 08:04:27;;;;;;;7.03;2.88;;;3.10;79.60;;;;;;5021550;28;20052;-83
2022/12/27 08:06:55;;;;;;;8.32;2.60;;;3.20;79.30;;;;;;5013607;28;20018;-84
2022/12/27 08:09:27;;;;;;;27.85;5.00;;;3.20;79.20;;;;;;5013619;28;20018;-74
2022/12/27 08:11:52;;;;;;;10.80;4.00;;;3.50;88.70;;;;;;5013204;28;20087;-74
2022/12/27 08:14:18;;;;;;;11.43;3.92;;;4.20;96.10;;;;;;5012978;28;20377;-74
2022/12/27 08:16:43;;;;;;;7.15;3.40;;;4.60;97.00;;;;;;5013129;28;20030;-74
2022/12/27 08:19:09;;;;;;;12.82;4.22;;;4.80;94.90;;;;;;5012784;28;20442;-74
2022/12/27 08:21:35;;;;;;;7.85;4.20;;;5.10;87.90;;;;;;5012949;28;20029;-75
2022/12/27 08:24:00;;;;;;;9.75;4.28;;;5.50;81.70;;;;;;5012767;28;20503;-75
2022/12/27 08:26:26;;;;;;;9.40;4.65;;;6.10;78.80;;;;;;5013681;28;20101;-78
2022/12/27 08:28:51;;;;;;;6.38;2.85;;;6.10;73.10;;;;;;5012903;28;20025;-83
2022/12/27 08:31:17;;;;;;;5.80;2.65;;;5.90;71.40;;;;;;5011631;28;20033;-77
2022/12/27 08:33:43;;;;;;;6.57;2.35;;;5.60;70.40;;;;;;5013039;28;20022;-83
2022/12/27 08:36:11;;;;;;;4.45;2.33;;;5.30;71.10;;;;;;5012740;28;20049;-83
2022/12/27 08:38:36;;;;;;;3.45;2.10;;;5.00;71.50;;;;;;5012796;28;20097;-82
2022/12/27 08:41:02;;;;;;;3.45;1.90;;;4.60;72.40;;;;;;5012341;28;20049;-77
2022/12/27 08:43:28;;;;;;;4.22;2.22;;;4.40;73.50;;;;;;5012441;28;20438;-84
2022/12/27 08:46:03;;;;;;;3.97;2.50;;;4.40;74.30;;;;;;5012620;28;20419;-78
2022/12/27 08:48:31;;;;;;;7.90;3.13;;;4.50;74.30;;;;;;5012747;28;20030;-79
2022/12/27 08:50:57;;;;;;;5.47;2.80;;;4.40;73.80;;;;;;5015322;28;20389;-79
2022/12/27 08:53:23;;;;;;;5.03;2.60;;;4.30;74.20;;;;;;5016085;28;20105;-76
2022/12/27 08:55:48;;;;;;;6.53;2.63;;;4.30;74.50;;;;;;5016203;28;20072;-77
2022/12/27 08:58:14;;;;;;;7.25;3.60;;;4.30;74.90;;;;;;5016074;28;20037;-80
2022/12/27 09:00:39;;;;;;;7.07;3.42;;;4.40;74.50;;;;;;5015291;28;20474;-83
2022/12/27 09:03:05;;;;;;;8.30;3.67;;;4.60;74.20;;;;;;5016067;28;20026;-84
2022/12/27 09:05:30;;;;;;;5.13;3.15;;;4.70;73.10;;;;;;5016585;28;20021;-83
2022/12/27 09:07:57;;;;;;;6.22;3.72;;;4.70;73.10;;;;;;5016164;28;20018;-82
2022/12/27 09:10:23;;;;;;;7.38;4.43;;;4.90;72.60;;;;;;5016369;28;20030;-84
2022/12/27 09:12:49;;;;;;;10.88;3.85;;;5.00;72.10;;;;;;5019339;28;20080;-84
2022/12/27 09:15:15;;;;;;;11.48;4.80;;;5.30;71.60;;;;;;5023447;28;20037;-84
2022/12/27 09:17:40;;;;;;;8.35;4.70;;;5.60;70.50;;;;;;5017141;28;20033;-84
2022/12/27 09:20:07;;;;;;;9.20;4.70;;;6.00;69.80;;;;;;5016086;28;20030;-84
2022/12/27 09:22:33;;;;;;;9.90;4.68;;;6.30;67.70;;;;;;5018932;28;20026;-84
2022/12/27 09:24:58;;;;;;;10.05;4.47;;;6.70;67.10;;;;;;5020310;28;20076;-84
2022/12/27 09:27:24;;;;;;;7.22;3.50;;;7.10;64.90;;;;;;5020740;28;20355;-84
2022/12/27 09:29:50;;;;;;;7.38;3.90;;;7.60;62.80;;;;;;5024005;28;20104;-84
2022/12/27 09:32:15;;;;;;;5.55;3.30;;;8.00;61.00;;;;;;5022830;28;20022;-84
2022/12/27 09:34:41;;;;;;;9.20;3.90;;;8.60;59.20;;;;;;5017051;28;20028;-85
2022/12/27 09:37:06;;;;;;;8.23;3.60;;;9.10;57.40;;;;;;5015770;28;20072;-85
2022/12/27 09:39:32;;;;;;;8.70;3.63;;;9.50;55.90;;;;;;5015959;28;20030;-75
2022/12/27 09:42:25;;;;;;;8.30;3.45;;;9.80;54.40;;;;;;5015895;28;20649;-83
2022/12/27 09:45:16;;;;;;;8.45;4.00;;;10.20;53.00;;;;;;5015581;28;20096;-85
2022/12/27 09:47:47;;;;;;;10.65;3.20;;;10.40;52.40;;;;;;5016122;28;20022;-84
2022/12/27 09:50:19;;;;;;;5.53;3.15;;;10.70;50.90;;;;;;5015684;28;20033;-77
2022/12/27 09:53:07;;;;;;;6.10;3.55;;;10.80;50.80;;;;;;5015405;28;20072;-84
2022/12/27 09:55:38;;;;;;;7.18;3.60;;;11.00;50.00;;;;;;5015544;28;20029;-80
2022/12/27 09:58:28;;;;;;;10.82;4.72;;;11.20;49.90;;;;;;5019793;28;20062;-77
2022/12/27 10:00:53;;;;;;;38.42;15.48;;;11.50;49.50;;;;;;5018876;28;20021;-77
2022/12/27 10:03:27;;;;;;;115.13;46.35;;;11.60;48.90;;;;;;5016813;28;20505;-74
2022/12/27 10:06:13;;;;;;;124.30;55.90;;;11.70;49.60;;;;;;5019023;28;20482;-81
2022/12/27 10:08:45;;;;;;;94.40;59.03;;;11.90;48.30;;;;;;5013947;28;20049;-80
2022/12/27 10:11:36;;;;;;;66.60;42.72;;;12.00;47.40;;;;;;5014843;28;20084;-79
2022/12/27 10:14:26;;;;;;;32.67;21.23;;;12.10;46.40;;;;;;5014343;28;20056;-77
2022/12/27 10:17:14;;;;;;;21.83;14.50;;;12.10;45.60;;;;;;5014469;28;20017;-76
2022/12/27 10:20:06;;;;;;;10.25;3.83;;;12.00;45.90;;;;;;5014843;28;20117;-75
2022/12/27 10:22:42;;;;;;;5.18;2.78;;;11.90;44.70;;;;;;5014695;28;20478;-75
2022/12/27 10:25:12;;;;;;;7.50;3.17;;;11.90;43.50;;;;;;5015180;28;20093;-75
2022/12/27 10:27:38;;;;;;;6.25;2.53;;;11.80;42.40;;;;;;5022388;28;20371;-74
2022/12/27 10:30:21;;;;;;;8.20;2.35;;;11.60;42.60;;;;;;5033428;28;20057;-74
2022/12/27 10:32:47;;;;;;;2.75;1.27;;;12.00;42.70;;;;;;5014224;28;20033;-75
2022/12/27 10:35:16;;;;;;;4.63;1.25;;;11.80;41.20;;;;;;5014354;28;20489;-74
2022/12/27 10:37:43;;;;;;;2.78;0.95;;;11.90;40.60;;;;;;5014462;28;20030;-74
2022/12/27 10:40:18;;;;;;;3.95;0.90;;;12.20;40.00;;;;;;5014182;28;20036;-78
2022/12/27 10:42:51;;;;;;;1.33;0.37;;;12.50;38.60;;;;;;5014423;28;20096;-76
2022/12/27 10:45:38;;;;;;;3.90;0.98;;;12.30;37.60;;;;;;5014917;28;20045;-80
2022/12/27 10:48:15;;;;;;;3.00;0.50;;;12.50;36.90;;;;;;5015155;28;20018;-78
2022/12/27 10:51:03;;;;;;;4.60;1.27;;;12.90;36.50;;;;;;5014094;28;20026;-76
2022/12/27 10:53:57;;;;;;;6.50;2.60;;;13.00;36.20;;;;;;5013033;28;20017;-80
2022/12/27 10:56:30;;;;;;;2.80;1.00;;;12.50;36.90;;;;;;4988253;28;20134;-80
2022/12/27 10:59:17;;;;;;;2.60;0.60;;;12.20;37.90;;;;;;5014332;28;20030;-80
2022/12/27 11:02:05;;;;;;;2.42;0.68;;;12.50;37.70;;;;;;5014127;28;20531;-76
2022/12/27 11:04:32;;;;;;;1.08;0.60;;;13.10;36.60;;;;;;5013920;28;20060;-77
2022/12/27 11:07:01;;;;;;;2.03;0.70;;;13.60;36.80;;;;;;5013826;28;20100;-78
2022/12/27 11:09:31;;;;;;;3.15;0.70;;;14.20;35.20;;;;;;5014053;28;20017;-78
2022/12/27 11:12:16;;;;;;;5.68;0.88;;;14.70;33.60;;;;;;5013475;28;20022;-77
2022/12/27 11:15:00;;;;;;;1.77;0.80;;;15.80;31.30;;;;;;5014031;28;20033;-80
2022/12/27 11:17:33;;;;;;;1.70;0.60;;;16.40;29.20;;;;;;5014242;28;20040;-76
2022/12/27 11:20:03;;;;;;;4.85;0.82;;;16.90;29.00;;;;;;5014107;28;20387;-75
2022/12/27 11:22:28;;;;;;;4.07;0.90;;;17.40;27.40;;;;;;5012601;28;20030;-80
2022/12/27 11:24:58;;;;;;;1.75;0.52;;;17.50;26.80;;;;;;5013792;28;20040;-77
2022/12/27 11:27:26;;;;;;;3.10;0.50;;;17.90;25.20;;;;;;5013568;28;20022;-76
2022/12/27 11:29:55;;;;;;;2.05;0.93;;;17.20;26.50;;;;;;5013783;28;20026;-76
2022/12/27 11:32:22;;;;;;;1.05;0.60;;;16.70;27.50;;;;;;5013462;28;20030;-77
2022/12/27 11:34:51;;;;;;;3.53;0.60;;;16.70;28.90;;;;;;5013672;28;20018;-77
2022/12/27 11:37:19;;;;;;;3.00;0.90;;;17.20;26.90;;;;;;5013566;28;20030;-76
2022/12/27 11:39:51;;;;;;;4.55;1.52;;;17.80;26.10;;;;;;5013404;28;20030;-76
2022/12/27 11:42:37;;;;;;;4.18;1.23;;;18.10;25.70;;;;;;5013560;28;20532;-80
2022/12/27 11:45:18;;;;;;;2.45;0.80;;;18.50;24.20;;;;;;5013316;28;20079;-77
2022/12/27 11:48:16;;;;;;;1.40;0.50;;;19.20;22.80;;;;;;5013372;28;20030;-75
2022/12/27 11:51:17;;;;;;;3.35;1.02;;;20.30;20.60;;;;;;5013193;28;20102;-77
2022/12/27 11:54:20;;;;;;;4.75;0.50;;;20.00;21.30;;;;;;5013286;28;20022;-75
2022/12/27 11:57:15;;;;;;;3.25;0.60;;;19.90;20.10;;;;;;5013093;28;20052;-75
2022/12/27 11:59:47;;;;;;;3.72;0.63;;;19.20;21.80;;;;;;5012879;28;20084;-77
2022/12/27 12:02:36;;;;;;;3.38;0.50;;;19.20;22.10;;;;;;5012836;28;20030;-77
2022/12/27 12:05:29;;;;;;;2.72;0.80;;;19.70;22.30;;;;;;5012930;28;20045;-74
2022/12/27 12:08:03;;;;;;;3.95;1.48;;;20.50;21.10;;;;;;5012904;28;20112;-76
2022/12/27 12:10:47;;;;;;;3.53;0.83;;;20.80;20.00;;;;;;5013102;28;20040;-74
2022/12/27 12:13:47;;;;;;;1.50;0.82;;;20.60;19.90;;;;;;5012941;28;20026;-74
2022/12/27 12:16:50;;;;;;;5.53;0.95;;;21.00;20.40;;;;;;5012985;28;20026;-76
2022/12/27 12:19:18;;;;;;;2.63;0.88;;;21.20;19.60;;;;;;5011690;28;20033;-80
2022/12/27 12:21:53;;;;;;;2.13;0.70;;;21.20;20.30;;;;;;5013133;28;20072;-79
2022/12/27 12:24:46;;;;;;;0.55;0.43;;;21.70;19.50;;;;;;5014844;28;20088;-75
2022/12/27 12:27:45;;;;;;;1.48;0.50;;;22.80;17.90;;;;;;5016561;28;20022;-74
2022/12/27 12:30:46;;;;;;;1.73;0.60;;;22.80;16.80;;;;;;5016816;28;20112;-74
2022/12/27 12:33:44;;;;;;;1.95;0.70;;;22.30;16.40;;;;;;5016772;28;20026;-73
2022/12/27 12:36:31;;;;;;;0.95;0.57;;;22.30;16.70;;;;;;5010767;28;20038;-76
2022/12/27 12:39:26;;;;;;;2.05;0.80;;;22.30;16.60;;;;;;5016358;28;20030;-75
2022/12/27 12:42:05;;;;;;;3.33;0.80;;;22.30;17.80;;;;;;5016497;28;20077;-74
2022/12/27 12:44:46;;;;;;;1.08;0.50;;;23.90;15.80;;;;;;5016530;28;20450;-75
2022/12/27 12:47:18;;;;;;;1.38;0.70;;;23.40;15.10;;;;;;5016593;28;20040;-76
2022/12/27 12:49:55;;;;;;;2.80;0.90;;;24.40;15.50;;;;;;5016840;28;20426;-82
2022/12/27 12:52:52;;;;;;;1.40;0.77;;;24.90;14.40;;;;;;5016258;28;20105;-76
2022/12/27 12:56:10;;;;;;;2.50;0.73;;;25.40;14.10;;;;;;5016541;28;20505;-76
2022/12/27 12:58:54;;;;;;;2.38;0.65;;;24.50;14.60;;;;;;4975376;28;20043;-74
2022/12/27 13:01:39;;;;;;;1.25;0.60;;;25.80;13.90;;;;;;5013288;28;20497;-76
2022/12/27 13:04:42;;;;;;;1.75;0.70;;;27.50;13.20;;;;;;5015371;28;20390;-80
2022/12/27 13:07:22;;;;;;;1.13;0.60;;;28.40;11.10;;;;;;5016155;28;20040;-73
2022/12/27 13:09:59;;;;;;;4.07;0.93;;;27.80;10.30;;;;;;5016660;28;20038;-75
2022/12/27 13:12:35;;;;;;;2.25;0.98;;;26.50;11.30;;;;;;5026672;28;20080;-75
2022/12/27 13:15:19;;;;;;;4.18;0.70;;;25.50;12.80;;;;;;5023294;28;20148;-76
2022/12/27 13:18:01;;;;;;;1.45;0.75;;;26.40;12.70;;;;;;5016947;28;20044;-74
2022/12/27 13:20:48;;;;;;;5.03;0.90;;;26.90;11.80;;;;;;5016284;28;20026;-77
2022/12/27 13:23:52;;;;;;;2.47;0.70;;;25.60;12.80;;;;;;5016091;28;20028;-76
2022/12/27 13:26:23;;;;;;;1.55;0.52;;;25.30;13.50;;;;;;4974673;28;20062;-74
2022/12/27 13:29:30;;;;;;;2.78;1.08;;;24.40;14.30;;;;;;4974471;28;20031;-74
2022/12/27 13:32:10;;;;;;;3.47;0.63;;;24.20;14.80;;;;;;5018246;28;20375;-76
2022/12/27 13:34:49;;;;;;;1.48;0.80;;;23.20;15.60;;;;;;5015562;28;20033;-75
2022/12/27 13:37:52;;;;;;;1.52;0.90;;;22.00;17.40;;;;;;5014920;28;20381;-74
2022/12/27 13:40:46;;;;;;;1.73;0.80;;;21.50;18.50;;;;;;5013887;28;20478;-74
2022/12/27 13:43:19;;;;;;;1.30;0.77;;;19.90;20.60;;;;;;5015647;28;20036;-73
2022/12/27 13:46:11;;;;;;;5.53;0.90;;;18.70;22.70;;;;;;5015405;28;20482;-75
2022/12/27 13:49:14;;;;;;;2.65;0.88;;;16.80;25.90;;;;;;5015172;28;20059;-75
2022/12/27 13:51:46;;;;;;;1.50;0.80;;;14.70;31.40;;;;;;5015279;28;20022;-76
2022/12/27 13:54:40;;;;;;;6.95;0.73;;;14.00;34.20;;;;;;5015199;28;20049;-76
2022/12/27 13:57:29;;;;;;;3.97;1.05;;;13.30;35.30;;;;;;5015024;28;20379;-74
2022/12/27 14:00:20;;;;;;;2.28;1.15;;;12.60;37.10;;;;;;5014896;28;20073;-74
2022/12/27 14:03:17;;;;;;;2.72;1.27;;;11.80;40.00;;;;;;5014910;28;20029;-76
2022/12/27 14:05:54;;;;;;;5.25;1.25;;;11.30;41.20;;;;;;5013523;28;20026;-74
2022/12/27 14:08:44;;;;;;;4.18;1.45;;;11.00;42.00;;;;;;5014948;28;20463;-75
2022/12/27 14:11:40;;;;;;;4.10;1.27;;;10.70;42.90;;;;;;5014971;28;20048;-75
2022/12/27 14:14:10;;;;;;;5.55;1.33;;;10.40;44.70;;;;;;5014733;28;20359;-75
2022/12/27 14:16:56;;;;;;;2.85;1.23;;;10.20;45.00;;;;;;5013686;28;20396;-74
2022/12/27 14:19:35;;;;;;;3.45;1.33;;;10.10;44.80;;;;;;4994807;28;20037;-74
2022/12/27 14:22:03;;;;;;;5.30;1.58;;;10.00;45.70;;;;;;5016695;28;20490;-74
2022/12/27 14:24:53;;;;;;;3.35;1.48;;;10.10;46.50;;;;;;5014556;28;20030;-74
2022/12/27 14:27:51;;;;;;;2.88;1.58;;;9.70;47.70;;;;;;5014325;28;20018;-74
2022/12/27 14:30:45;;;;;;;2.80;1.42;;;9.70;48.00;;;;;;5014364;28;20034;-75
2022/12/27 14:33:22;;;;;;;1.65;1.02;;;9.70;48.60;;;;;;4996793;28;20521;-74
2022/12/27 14:36:22;;;;;;;2.95;0.90;;;9.60;48.60;;;;;;5014333;28;20022;-74
2022/12/27 14:39:17;;;;;;;3.25;0.95;;;9.50;50.50;;;;;;5014145;28;20021;-75
2022/12/27 14:42:18;;;;;;;5.47;0.90;;;9.40;50.80;;;;;;5014054;28;20136;-74
2022/12/27 14:45:13;;;;;;;4.22;0.57;;;9.40;51.20;;;;;;5014195;28;20030;-75
2022/12/27 14:48:11;;;;;;;1.95;0.93;;;9.30;51.60;;;;;;5013016;28;20022;-75
2022/12/27 14:50:51;;;;;;;2.53;0.80;;;9.30;52.10;;;;;;5013916;28;20096;-74
2022/12/27 14:54:01;;;;;;;2.38;1.20;;;9.20;52.40;;;;;;5013922;28;20383;-74
2022/12/27 14:56:48;;;;;;;6.10;2.08;;;9.10;53.50;;;;;;5013581;28;20026;-74
2022/12/27 14:59:25;;;;;;;7.72;2.90;;;8.90;54.50;;;;;;5013911;28;20112;-75
2022/12/27 15:02:15;;;;;;;6.43;2.63;;;8.70;55.30;;;;;;5013748;28;20153;-74
2022/12/27 15:05:12;;;;;;;7.57;2.38;;;8.50;56.50;;;;;;5013885;28;20127;-74
2022/12/27 15:08:02;;;;;;;5.90;2.10;;;8.30;57.70;;;;;;5013879;28;20034;-73
2022/12/27 15:10:36;;;;;;;7.43;2.72;;;8.20;58.90;;;;;;5013782;28;20129;-73